sensor_id;sensor_type;location;lat;lon;timestamp;temperature;humidity
33594;DHT22;19920;52.242;20.940;2023-07-24T00:00:20;21.00;99.90
33594;DHT22;19920;52.242;20.940;2023-07-24T00:02:46;21.00;99.90
33594;DHT22;19920;52.242;20.940;2023-07-24T00:05:11;21.10;99.90
33594;DHT22;19920;52.242;20.940;2023-07-24T00:07:37;21.10;99.90
33594;DHT22;19920;52.242;20.940;2023-07-24T00:10:03;21.10;99.90
33594;DHT22;19920;52.242;20.940;2023-07-24T00:12:29;21.10;99.90
33594;DHT22;19920;52.242;20.940;2023-07-24T00:14:54;21.10;99.90
33594;DHT22;19920;52.242;20.940;2023-07-24T00:17:20;21.10;99.90
33594;DHT22;19920;52.242;20.940;2023-07-24T00:19:46;21.10;99.90
33594;DHT22;19920;52.242;20.940;2023-07-24T00:22:11;21.10;99.90
33594;DHT22;19920;52.242;20.940;2023-07-24T00:24:37;21.10;99.90
33594;DHT22;19920;52.242;20.940;2023-07-24T00:27:02;21.20;99.90
33594;DHT22;19920;52.242;20.940;2023-07-24T00:29:28;21.20;99.90
33594;DHT22;19920;52.242;20.940;2023-07-24T00:31:54;21.20;99.90
33594;DHT22;19920;52.242;20.940;2023-07-24T00:34:19;21.30;99.90
33594;DHT22;19920;52.242;20.940;2023-07-24T00:36:45;21.30;99.90
33594;DHT22;19920;52.242;20.940;2023-07-24T00:39:11;21.30;99.90
33594;DHT22;19920;52.242;20.940;2023-07-24T00:41:37;21.30;99.90
33594;DHT22;19920;52.242;20.940;2023-07-24T00:44:02;21.30;99.90
33594;DHT22;19920;52.242;20.940;2023-07-24T00:46:28;21.30;99.90
33594;DHT22;19920;52.242;20.940;2023-07-24T00:48:58;21.30;99.90
33594;DHT22;19920;52.242;20.940;2023-07-24T00:51:28;21.30;99.90
33594;DHT22;19920;52.242;20.940;2023-07-24T00:53:56;21.30;99.90
33594;DHT22;19920;52.242;20.940;2023-07-24T00:56:22;21.30;99.90
33594;DHT22;19920;52.242;20.940;2023-07-24T00:58:48;21.30;99.90
33594;DHT22;19920;52.242;20.940;2023-07-24T01:01:16;21.30;99.90
33594;DHT22;19920;52.242;20.940;2023-07-24T01:03:42;21.30;99.90
33594;DHT22;19920;52.242;20.940;2023-07-24T01:06:09;21.30;99.90
33594;DHT22;19920;52.242;20.940;2023-07-24T01:08:35;21.30;99.90
33594;DHT22;19920;52.242;20.940;2023-07-24T01:11:12;21.40;99.90
33594;DHT22;19920;52.242;20.940;2023-07-24T01:13:44;21.40;99.90
33594;DHT22;19920;52.242;20.940;2023-07-24T01:16:19;21.30;99.90
33594;DHT22;19920;52.242;20.940;2023-07-24T01:18:48;21.40;99.90
33594;DHT22;19920;52.242;20.940;2023-07-24T01:21:18;21.40;99.90
33594;DHT22;19920;52.242;20.940;2023-07-24T01:26:16;21.40;99.90
33594;DHT22;19920;52.242;20.940;2023-07-24T01:28:42;21.50;99.90
33594;DHT22;19920;52.242;20.940;2023-07-24T01:31:07;21.50;99.90
33594;DHT22;19920;52.242;20.940;2023-07-24T01:33:33;21.50;99.90
33594;DHT22;19920;52.242;20.940;2023-07-24T01:36:02;21.40;99.90
33594;DHT22;19920;52.242;20.940;2023-07-24T01:38:28;21.50;99.90
33594;DHT22;19920;52.242;20.940;2023-07-24T01:40:56;21.50;99.90
33594;DHT22;19920;52.242;20.940;2023-07-24T01:43:24;21.50;99.90
33594;DHT22;19920;52.242;20.940;2023-07-24T01:45:51;21.50;99.90
33594;DHT22;19920;52.242;20.940;2023-07-24T01:48:17;21.50;99.90
33594;DHT22;19920;52.242;20.940;2023-07-24T01:50:42;21.50;99.90
33594;DHT22;19920;52.242;20.940;2023-07-24T01:53:08;21.60;99.90
33594;DHT22;19920;52.242;20.940;2023-07-24T01:55:35;21.50;99.90
33594;DHT22;19920;52.242;20.940;2023-07-24T01:58:00;21.50;99.90
33594;DHT22;19920;52.242;20.940;2023-07-24T02:00:26;21.50;99.90
33594;DHT22;19920;52.242;20.940;2023-07-24T02:02:51;21.50;99.90
33594;DHT22;19920;52.242;20.940;2023-07-24T02:05:17;21.50;99.90
33594;DHT22;19920;52.242;20.940;2023-07-24T02:07:43;21.40;99.90
33594;DHT22;19920;52.242;20.940;2023-07-24T02:10:08;21.40;99.90
33594;DHT22;19920;52.242;20.940;2023-07-24T02:12:34;21.50;99.90
33594;DHT22;19920;52.242;20.940;2023-07-24T02:15:00;21.40;99.90
33594;DHT22;19920;52.242;20.940;2023-07-24T02:17:25;21.40;99.90
33594;DHT22;19920;52.242;20.940;2023-07-24T02:19:51;21.40;99.90
33594;DHT22;19920;52.242;20.940;2023-07-24T02:22:16;21.40;99.90
33594;DHT22;19920;52.242;20.940;2023-07-24T02:24:42;21.40;99.90
33594;DHT22;19920;52.242;20.940;2023-07-24T02:27:11;21.40;99.90
33594;DHT22;19920;52.242;20.940;2023-07-24T02:29:37;21.40;99.90
33594;DHT22;19920;52.242;20.940;2023-07-24T02:32:02;21.30;99.90
33594;DHT22;19920;52.242;20.940;2023-07-24T02:34:28;21.30;99.90
33594;DHT22;19920;52.242;20.940;2023-07-24T02:36:53;21.20;99.90
33594;DHT22;19920;52.242;20.940;2023-07-24T02:39:20;21.20;99.90
33594;DHT22;19920;52.242;20.940;2023-07-24T02:41:46;21.20;99.90
33594;DHT22;19920;52.242;20.940;2023-07-24T02:44:12;21.20;99.90
33594;DHT22;19920;52.242;20.940;2023-07-24T02:46:38;21.20;99.90
33594;DHT22;19920;52.242;20.940;2023-07-24T02:49:03;21.10;99.90
33594;DHT22;19920;52.242;20.940;2023-07-24T02:51:31;21.10;99.90
33594;DHT22;19920;52.242;20.940;2023-07-24T02:53:57;21.00;99.90
33594;DHT22;19920;52.242;20.940;2023-07-24T02:56:22;21.10;99.90
33594;DHT22;19920;52.242;20.940;2023-07-24T02:58:48;21.00;99.90
33594;DHT22;19920;52.242;20.940;2023-07-24T03:01:13;21.00;99.90
33594;DHT22;19920;52.242;20.940;2023-07-24T03:03:42;21.00;99.90
33594;DHT22;19920;52.242;20.940;2023-07-24T03:06:08;21.00;99.90
33594;DHT22;19920;52.242;20.940;2023-07-24T03:08:33;21.00;99.90
33594;DHT22;19920;52.242;20.940;2023-07-24T03:10:59;21.00;99.90
33594;DHT22;19920;52.242;20.940;2023-07-24T03:13:25;21.10;99.90
33594;DHT22;19920;52.242;20.940;2023-07-24T03:15:56;21.00;99.90
33594;DHT22;19920;52.242;20.940;2023-07-24T03:18:22;21.10;99.90
33594;DHT22;19920;52.242;20.940;2023-07-24T03:20:47;21.00;99.90
33594;DHT22;19920;52.242;20.940;2023-07-24T03:23:13;21.00;99.90
33594;DHT22;19920;52.242;20.940;2023-07-24T03:25:39;20.90;99.90
33594;DHT22;19920;52.242;20.940;2023-07-24T03:28:04;20.80;99.90
33594;DHT22;19920;52.242;20.940;2023-07-24T03:30:30;20.90;99.90
33594;DHT22;19920;52.242;20.940;2023-07-24T03:32:56;20.80;99.90
33594;DHT22;19920;52.242;20.940;2023-07-24T03:35:22;20.80;99.90
33594;DHT22;19920;52.242;20.940;2023-07-24T03:37:47;20.70;99.90
33594;DHT22;19920;52.242;20.940;2023-07-24T03:40:13;20.70;99.90
33594;DHT22;19920;52.242;20.940;2023-07-24T03:42:39;20.80;99.90
33594;DHT22;19920;52.242;20.940;2023-07-24T03:45:05;20.80;99.90
33594;DHT22;19920;52.242;20.940;2023-07-24T03:47:31;20.80;99.90
33594;DHT22;19920;52.242;20.940;2023-07-24T03:49:56;20.80;99.90
33594;DHT22;19920;52.242;20.940;2023-07-24T03:52:22;20.80;99.90
33594;DHT22;19920;52.242;20.940;2023-07-24T03:54:47;20.80;99.90
33594;DHT22;19920;52.242;20.940;2023-07-24T03:57:13;20.80;99.90
33594;DHT22;19920;52.242;20.940;2023-07-24T03:59:38;20.80;99.90
33594;DHT22;19920;52.242;20.940;2023-07-24T04:02:04;20.80;99.90
33594;DHT22;19920;52.242;20.940;2023-07-24T04:04:31;20.80;99.90
33594;DHT22;19920;52.242;20.940;2023-07-24T04:06:56;20.90;99.90
33594;DHT22;19920;52.242;20.940;2023-07-24T04:09:22;20.90;99.90
33594;DHT22;19920;52.242;20.940;2023-07-24T04:11:48;20.90;99.90
33594;DHT22;19920;52.242;20.940;2023-07-24T04:14:13;20.80;99.90
33594;DHT22;19920;52.242;20.940;2023-07-24T04:16:39;20.90;99.90
33594;DHT22;19920;52.242;20.940;2023-07-24T04:19:04;20.90;99.90
33594;DHT22;19920;52.242;20.940;2023-07-24T04:21:30;20.90;99.90
33594;DHT22;19920;52.242;20.940;2023-07-24T04:23:56;21.00;99.90
33594;DHT22;19920;52.242;20.940;2023-07-24T04:26:22;21.00;99.90
33594;DHT22;19920;52.242;20.940;2023-07-24T04:28:47;21.10;99.90
33594;DHT22;19920;52.242;20.940;2023-07-24T04:31:13;21.10;99.90
33594;DHT22;19920;52.242;20.940;2023-07-24T04:33:39;21.20;99.90
33594;DHT22;19920;52.242;20.940;2023-07-24T04:36:04;21.20;99.90
33594;DHT22;19920;52.242;20.940;2023-07-24T04:38:30;21.20;99.90
33594;DHT22;19920;52.242;20.940;2023-07-24T04:40:55;21.30;99.90
33594;DHT22;19920;52.242;20.940;2023-07-24T04:43:21;21.20;99.90
33594;DHT22;19920;52.242;20.940;2023-07-24T04:45:46;21.20;99.90
33594;DHT22;19920;52.242;20.940;2023-07-24T04:48:12;21.20;99.90
33594;DHT22;19920;52.242;20.940;2023-07-24T04:50:38;21.30;99.90
33594;DHT22;19920;52.242;20.940;2023-07-24T04:53:03;21.40;99.90
33594;DHT22;19920;52.242;20.940;2023-07-24T04:55:29;21.40;99.90
33594;DHT22;19920;52.242;20.940;2023-07-24T04:57:54;21.50;99.90
33594;DHT22;19920;52.242;20.940;2023-07-24T05:00:20;21.60;99.90
33594;DHT22;19920;52.242;20.940;2023-07-24T05:02:45;21.70;99.90
33594;DHT22;19920;52.242;20.940;2023-07-24T05:05:11;21.70;99.90
33594;DHT22;19920;52.242;20.940;2023-07-24T05:07:36;21.80;99.90
33594;DHT22;19920;52.242;20.940;2023-07-24T05:10:02;21.90;99.90
33594;DHT22;19920;52.242;20.940;2023-07-24T05:12:28;22.00;99.90
33594;DHT22;19920;52.242;20.940;2023-07-24T05:14:53;22.10;99.90
33594;DHT22;19920;52.242;20.940;2023-07-24T05:17:19;22.10;99.90
33594;DHT22;19920;52.242;20.940;2023-07-24T05:19:44;22.10;99.90
33594;DHT22;19920;52.242;20.940;2023-07-24T05:22:10;22.00;99.90
33594;DHT22;19920;52.242;20.940;2023-07-24T05:24:36;22.00;99.90
33594;DHT22;19920;52.242;20.940;2023-07-24T05:27:05;22.00;99.90
33594;DHT22;19920;52.242;20.940;2023-07-24T05:29:31;21.90;99.90
33594;DHT22;19920;52.242;20.940;2023-07-24T05:31:57;22.00;99.90
33594;DHT22;19920;52.242;20.940;2023-07-24T05:34:24;22.00;99.90
33594;DHT22;19920;52.242;20.940;2023-07-24T05:36:50;22.10;99.90
33594;DHT22;19920;52.242;20.940;2023-07-24T05:39:15;22.00;99.90
33594;DHT22;19920;52.242;20.940;2023-07-24T05:41:41;22.10;99.90
33594;DHT22;19920;52.242;20.940;2023-07-24T05:44:06;22.10;99.90
33594;DHT22;19920;52.242;20.940;2023-07-24T05:46:32;22.20;99.90
33594;DHT22;19920;52.242;20.940;2023-07-24T05:48:57;22.10;99.90
33594;DHT22;19920;52.242;20.940;2023-07-24T05:51:25;22.10;99.90
33594;DHT22;19920;52.242;20.940;2023-07-24T05:53:50;22.00;99.90
33594;DHT22;19920;52.242;20.940;2023-07-24T05:56:16;22.00;99.90
33594;DHT22;19920;52.242;20.940;2023-07-24T05:58:42;22.10;99.90
33594;DHT22;19920;52.242;20.940;2023-07-24T06:01:07;22.10;99.90
33594;DHT22;19920;52.242;20.940;2023-07-24T06:03:35;22.10;99.90
33594;DHT22;19920;52.242;20.940;2023-07-24T06:06:01;22.20;99.90
33594;DHT22;19920;52.242;20.940;2023-07-24T06:08:27;22.20;99.90
33594;DHT22;19920;52.242;20.940;2023-07-24T06:10:52;22.00;99.90
33594;DHT22;19920;52.242;20.940;2023-07-24T06:13:18;22.00;99.90
33594;DHT22;19920;52.242;20.940;2023-07-24T06:15:46;22.00;99.90
33594;DHT22;19920;52.242;20.940;2023-07-24T06:18:12;22.10;99.90
33594;DHT22;19920;52.242;20.940;2023-07-24T06:20:37;22.20;99.90
33594;DHT22;19920;52.242;20.940;2023-07-24T06:23:03;22.40;99.90
33594;DHT22;19920;52.242;20.940;2023-07-24T06:25:30;22.40;99.90
33594;DHT22;19920;52.242;20.940;2023-07-24T06:27:56;22.40;99.90
33594;DHT22;19920;52.242;20.940;2023-07-24T06:30:22;22.50;99.90
33594;DHT22;19920;52.242;20.940;2023-07-24T06:32:47;22.60;99.90
33594;DHT22;19920;52.242;20.940;2023-07-24T06:35:13;22.90;99.90
33594;DHT22;19920;52.242;20.940;2023-07-24T06:37:39;23.00;99.90
33594;DHT22;19920;52.242;20.940;2023-07-24T06:40:06;23.10;99.90
33594;DHT22;19920;52.242;20.940;2023-07-24T06:42:31;23.00;99.90
33594;DHT22;19920;52.242;20.940;2023-07-24T06:44:57;22.90;99.90
33594;DHT22;19920;52.242;20.940;2023-07-24T06:47:23;22.90;99.90
33594;DHT22;19920;52.242;20.940;2023-07-24T06:49:48;22.80;99.90
33594;DHT22;19920;52.242;20.940;2023-07-24T06:52:14;22.80;99.90
33594;DHT22;19920;52.242;20.940;2023-07-24T06:54:39;22.70;99.90
33594;DHT22;19920;52.242;20.940;2023-07-24T06:57:05;22.70;99.90
33594;DHT22;19920;52.242;20.940;2023-07-24T06:59:30;22.70;99.90
33594;DHT22;19920;52.242;20.940;2023-07-24T07:01:56;22.80;99.90
33594;DHT22;19920;52.242;20.940;2023-07-24T07:04:21;22.80;99.90
33594;DHT22;19920;52.242;20.940;2023-07-24T07:06:47;22.90;99.90
33594;DHT22;19920;52.242;20.940;2023-07-24T07:09:12;23.10;99.90
33594;DHT22;19920;52.242;20.940;2023-07-24T07:11:38;23.20;99.90
33594;DHT22;19920;52.242;20.940;2023-07-24T07:14:04;23.20;99.90
33594;DHT22;19920;52.242;20.940;2023-07-24T07:16:30;23.30;99.90
33594;DHT22;19920;52.242;20.940;2023-07-24T07:18:55;23.40;99.90
33594;DHT22;19920;52.242;20.940;2023-07-24T07:21:21;23.60;99.90
33594;DHT22;19920;52.242;20.940;2023-07-24T07:23:46;23.70;99.90
33594;DHT22;19920;52.242;20.940;2023-07-24T07:26:12;23.90;99.90
33594;DHT22;19920;52.242;20.940;2023-07-24T07:28:37;23.70;99.90
33594;DHT22;19920;52.242;20.940;2023-07-24T07:31:03;23.80;99.90
33594;DHT22;19920;52.242;20.940;2023-07-24T07:33:29;23.90;99.90
33594;DHT22;19920;52.242;20.940;2023-07-24T07:35:55;23.90;99.90
33594;DHT22;19920;52.242;20.940;2023-07-24T07:38:20;24.00;99.90
33594;DHT22;19920;52.242;20.940;2023-07-24T07:40:48;24.20;99.90
33594;DHT22;19920;52.242;20.940;2023-07-24T07:43:13;24.10;99.90
33594;DHT22;19920;52.242;20.940;2023-07-24T07:45:39;23.80;99.90
33594;DHT22;19920;52.242;20.940;2023-07-24T07:48:05;23.70;99.90
33594;DHT22;19920;52.242;20.940;2023-07-24T07:50:30;23.80;99.90
33594;DHT22;19920;52.242;20.940;2023-07-24T07:52:56;24.10;99.90
33594;DHT22;19920;52.242;20.940;2023-07-24T07:55:21;24.30;99.90
33594;DHT22;19920;52.242;20.940;2023-07-24T07:57:47;24.60;99.90
33594;DHT22;19920;52.242;20.940;2023-07-24T08:00:13;24.60;99.90
33594;DHT22;19920;52.242;20.940;2023-07-24T08:02:39;24.80;99.90
33594;DHT22;19920;52.242;20.940;2023-07-24T08:05:09;24.90;99.90
33594;DHT22;19920;52.242;20.940;2023-07-24T08:07:35;24.80;99.90
33594;DHT22;19920;52.242;20.940;2023-07-24T08:10:01;25.00;99.90
33594;DHT22;19920;52.242;20.940;2023-07-24T08:12:26;25.00;99.90
33594;DHT22;19920;52.242;20.940;2023-07-24T08:14:52;25.00;99.90
33594;DHT22;19920;52.242;20.940;2023-07-24T08:17:17;25.10;99.90
33594;DHT22;19920;52.242;20.940;2023-07-24T08:19:43;25.10;99.90
33594;DHT22;19920;52.242;20.940;2023-07-24T08:22:08;25.10;99.90
33594;DHT22;19920;52.242;20.940;2023-07-24T08:24:34;24.90;99.90
33594;DHT22;19920;52.242;20.940;2023-07-24T08:27:01;25.00;99.90
33594;DHT22;19920;52.242;20.940;2023-07-24T08:29:26;25.10;99.90
33594;DHT22;19920;52.242;20.940;2023-07-24T08:31:52;25.20;99.90
33594;DHT22;19920;52.242;20.940;2023-07-24T08:34:17;25.40;99.90
33594;DHT22;19920;52.242;20.940;2023-07-24T08:36:43;25.60;99.90
33594;DHT22;19920;52.242;20.940;2023-07-24T08:39:09;25.60;99.90
33594;DHT22;19920;52.242;20.940;2023-07-24T08:41:34;25.70;99.90
33594;DHT22;19920;52.242;20.940;2023-07-24T08:44:01;25.70;99.90
33594;DHT22;19920;52.242;20.940;2023-07-24T08:46:27;25.80;99.90
33594;DHT22;19920;52.242;20.940;2023-07-24T08:48:54;25.90;99.90
33594;DHT22;19920;52.242;20.940;2023-07-24T08:51:20;26.00;99.90
33594;DHT22;19920;52.242;20.940;2023-07-24T08:53:47;25.90;99.90
33594;DHT22;19920;52.242;20.940;2023-07-24T08:56:13;26.00;99.90
33594;DHT22;19920;52.242;20.940;2023-07-24T08:58:40;26.00;99.90
33594;DHT22;19920;52.242;20.940;2023-07-24T09:01:06;25.90;99.90
33594;DHT22;19920;52.242;20.940;2023-07-24T09:03:32;26.00;99.90
33594;DHT22;19920;52.242;20.940;2023-07-24T09:05:58;26.20;99.90
33594;DHT22;19920;52.242;20.940;2023-07-24T09:10:59;26.40;99.90
33594;DHT22;19920;52.242;20.940;2023-07-24T09:13:25;26.30;99.90
33594;DHT22;19920;52.242;20.940;2023-07-24T09:15:51;26.30;99.90
33594;DHT22;19920;52.242;20.940;2023-07-24T09:18:18;26.20;99.90
33594;DHT22;19920;52.242;20.940;2023-07-24T09:20:44;26.30;99.90
33594;DHT22;19920;52.242;20.940;2023-07-24T09:23:12;26.30;99.90
33594;DHT22;19920;52.242;20.940;2023-07-24T09:25:39;26.40;99.90
33594;DHT22;19920;52.242;20.940;2023-07-24T09:28:12;26.50;99.90
33594;DHT22;19920;52.242;20.940;2023-07-24T09:30:39;26.50;99.90
33594;DHT22;19920;52.242;20.940;2023-07-24T09:33:05;26.50;99.90
33594;DHT22;19920;52.242;20.940;2023-07-24T09:35:31;26.50;99.90
33594;DHT22;19920;52.242;20.940;2023-07-24T09:40:44;26.70;99.90
33594;DHT22;19920;52.242;20.940;2023-07-24T09:45:41;27.00;99.90
33594;DHT22;19920;52.242;20.940;2023-07-24T09:48:07;27.10;99.90
33594;DHT22;19920;52.242;20.940;2023-07-24T09:50:37;27.20;99.90
33594;DHT22;19920;52.242;20.940;2023-07-24T09:53:03;27.20;99.90
33594;DHT22;19920;52.242;20.940;2023-07-24T09:55:37;27.30;99.90
33594;DHT22;19920;52.242;20.940;2023-07-24T09:58:06;27.20;99.90
33594;DHT22;19920;52.242;20.940;2023-07-24T10:00:32;27.20;99.90
33594;DHT22;19920;52.242;20.940;2023-07-24T10:02:58;27.20;99.90
33594;DHT22;19920;52.242;20.940;2023-07-24T10:05:25;27.20;99.90
33594;DHT22;19920;52.242;20.940;2023-07-24T10:07:51;27.10;99.90
33594;DHT22;19920;52.242;20.940;2023-07-24T10:10:17;27.10;99.90
33594;DHT22;19920;52.242;20.940;2023-07-24T10:12:43;27.20;99.90
33594;DHT22;19920;52.242;20.940;2023-07-24T10:15:09;26.90;99.90
33594;DHT22;19920;52.242;20.940;2023-07-24T10:17:40;27.00;99.90
33594;DHT22;19920;52.242;20.940;2023-07-24T10:20:10;27.00;99.90
33594;DHT22;19920;52.242;20.940;2023-07-24T10:22:36;27.00;99.90
33594;DHT22;19920;52.242;20.940;2023-07-24T10:25:07;27.20;99.90
33594;DHT22;19920;52.242;20.940;2023-07-24T10:27:36;27.50;99.90
33594;DHT22;19920;52.242;20.940;2023-07-24T10:30:03;27.60;99.90
33594;DHT22;19920;52.242;20.940;2023-07-24T10:32:30;27.70;99.90
33594;DHT22;19920;52.242;20.940;2023-07-24T10:35:06;27.70;99.90
33594;DHT22;19920;52.242;20.940;2023-07-24T10:37:36;27.70;99.90
33594;DHT22;19920;52.242;20.940;2023-07-24T10:40:03;27.90;99.90
33594;DHT22;19920;52.242;20.940;2023-07-24T10:42:30;27.80;99.90
33594;DHT22;19920;52.242;20.940;2023-07-24T10:45:08;27.70;99.90
33594;DHT22;19920;52.242;20.940;2023-07-24T10:47:35;27.90;99.90
33594;DHT22;19920;52.242;20.940;2023-07-24T10:50:02;28.10;99.90
33594;DHT22;19920;52.242;20.940;2023-07-24T10:52:31;28.20;99.90
33594;DHT22;19920;52.242;20.940;2023-07-24T10:55:00;28.20;99.90
33594;DHT22;19920;52.242;20.940;2023-07-24T10:57:28;28.00;99.90
33594;DHT22;19920;52.242;20.940;2023-07-24T10:59:53;27.90;99.90
33594;DHT22;19920;52.242;20.940;2023-07-24T11:02:19;27.90;99.90
33594;DHT22;19920;52.242;20.940;2023-07-24T11:04:45;28.20;99.90
33594;DHT22;19920;52.242;20.940;2023-07-24T11:07:12;28.60;99.90
33594;DHT22;19920;52.242;20.940;2023-07-24T11:09:39;28.80;99.90
33594;DHT22;19920;52.242;20.940;2023-07-24T11:12:13;28.90;99.90
33594;DHT22;19920;52.242;20.940;2023-07-24T11:14:52;28.90;99.90
33594;DHT22;19920;52.242;20.940;2023-07-24T11:17:21;29.00;99.90
33594;DHT22;19920;52.242;20.940;2023-07-24T11:19:47;29.10;99.90
33594;DHT22;19920;52.242;20.940;2023-07-24T11:22:13;29.10;99.90
33594;DHT22;19920;52.242;20.940;2023-07-24T11:24:43;29.10;99.90
33594;DHT22;19920;52.242;20.940;2023-07-24T11:27:13;29.30;99.90
33594;DHT22;19920;52.242;20.940;2023-07-24T11:29:39;29.30;99.90
33594;DHT22;19920;52.242;20.940;2023-07-24T11:32:04;29.40;99.90
33594;DHT22;19920;52.242;20.940;2023-07-24T11:34:30;29.30;99.90
33594;DHT22;19920;52.242;20.940;2023-07-24T11:36:56;29.20;99.90
33594;DHT22;19920;52.242;20.940;2023-07-24T11:39:25;29.10;99.90
33594;DHT22;19920;52.242;20.940;2023-07-24T11:41:50;29.00;99.90
33594;DHT22;19920;52.242;20.940;2023-07-24T11:44:27;28.80;99.90
33594;DHT22;19920;52.242;20.940;2023-07-24T11:47:00;28.80;99.90
33594;DHT22;19920;52.242;20.940;2023-07-24T11:49:28;28.80;99.90
33594;DHT22;19920;52.242;20.940;2023-07-24T11:52:00;29.00;99.90
33594;DHT22;19920;52.242;20.940;2023-07-24T11:54:26;29.20;99.90
33594;DHT22;19920;52.242;20.940;2023-07-24T11:56:51;29.40;99.90
33594;DHT22;19920;52.242;20.940;2023-07-24T11:59:17;29.40;99.90
33594;DHT22;19920;52.242;20.940;2023-07-24T12:01:46;29.30;99.90
33594;DHT22;19920;52.242;20.940;2023-07-24T12:04:15;29.30;99.90
33594;DHT22;19920;52.242;20.940;2023-07-24T12:06:41;29.10;99.90
33594;DHT22;19920;52.242;20.940;2023-07-24T12:09:07;29.00;99.90
33594;DHT22;19920;52.242;20.940;2023-07-24T12:11:34;28.80;99.90
33594;DHT22;19920;52.242;20.940;2023-07-24T12:14:05;28.90;99.90
33594;DHT22;19920;52.242;20.940;2023-07-24T12:16:30;29.00;99.90
33594;DHT22;19920;52.242;20.940;2023-07-24T12:18:59;29.20;99.90
33594;DHT22;19920;52.242;20.940;2023-07-24T12:21:24;29.40;99.90
33594;DHT22;19920;52.242;20.940;2023-07-24T12:23:50;29.70;99.90
33594;DHT22;19920;52.242;20.940;2023-07-24T12:26:15;29.90;99.90
33594;DHT22;19920;52.242;20.940;2023-07-24T12:28:41;30.30;99.90
33594;DHT22;19920;52.242;20.940;2023-07-24T12:31:07;30.30;99.90
33594;DHT22;19920;52.242;20.940;2023-07-24T12:33:32;30.20;99.90
33594;DHT22;19920;52.242;20.940;2023-07-24T12:35:58;29.80;99.90
33594;DHT22;19920;52.242;20.940;2023-07-24T12:38:23;29.90;99.90
33594;DHT22;19920;52.242;20.940;2023-07-24T12:40:49;30.10;99.90
33594;DHT22;19920;52.242;20.940;2023-07-24T12:43:15;30.30;99.90
33594;DHT22;19920;52.242;20.940;2023-07-24T12:45:41;30.50;99.90
33594;DHT22;19920;52.242;20.940;2023-07-24T12:48:06;30.60;99.90
33594;DHT22;19920;52.242;20.940;2023-07-24T12:50:33;30.70;99.90
33594;DHT22;19920;52.242;20.940;2023-07-24T12:52:58;30.70;99.90
33594;DHT22;19920;52.242;20.940;2023-07-24T12:55:24;30.90;99.90
33594;DHT22;19920;52.242;20.940;2023-07-24T12:57:50;31.00;99.90
33594;DHT22;19920;52.242;20.940;2023-07-24T13:00:16;31.00;99.90
33594;DHT22;19920;52.242;20.940;2023-07-24T13:02:42;31.00;99.90
33594;DHT22;19920;52.242;20.940;2023-07-24T13:05:07;30.70;99.90
33594;DHT22;19920;52.242;20.940;2023-07-24T13:07:33;30.70;99.90
33594;DHT22;19920;52.242;20.940;2023-07-24T13:09:59;31.00;99.90
33594;DHT22;19920;52.242;20.940;2023-07-24T13:12:24;31.20;99.90
33594;DHT22;19920;52.242;20.940;2023-07-24T13:14:50;31.20;99.90
33594;DHT22;19920;52.242;20.940;2023-07-24T13:17:16;30.90;99.90
33594;DHT22;19920;52.242;20.940;2023-07-24T13:19:42;31.10;99.90
33594;DHT22;19920;52.242;20.940;2023-07-24T13:22:07;31.20;99.90
33594;DHT22;19920;52.242;20.940;2023-07-24T13:24:33;30.90;99.90
33594;DHT22;19920;52.242;20.940;2023-07-24T13:26:58;30.60;99.90
33594;DHT22;19920;52.242;20.940;2023-07-24T13:29:24;30.60;99.90
33594;DHT22;19920;52.242;20.940;2023-07-24T13:31:50;30.60;99.90
33594;DHT22;19920;52.242;20.940;2023-07-24T13:34:19;30.60;99.90
33594;DHT22;19920;52.242;20.940;2023-07-24T13:36:46;30.80;99.90
33594;DHT22;19920;52.242;20.940;2023-07-24T13:39:12;31.00;99.90
33594;DHT22;19920;52.242;20.940;2023-07-24T13:41:38;31.30;99.90
33594;DHT22;19920;52.242;20.940;2023-07-24T13:44:04;31.30;99.90
33594;DHT22;19920;52.242;20.940;2023-07-24T13:46:30;31.00;99.90
33594;DHT22;19920;52.242;20.940;2023-07-24T13:48:55;31.30;99.90
33594;DHT22;19920;52.242;20.940;2023-07-24T13:51:21;31.60;99.90
33594;DHT22;19920;52.242;20.940;2023-07-24T13:53:46;31.80;99.90
33594;DHT22;19920;52.242;20.940;2023-07-24T13:56:14;32.10;99.90
33594;DHT22;19920;52.242;20.940;2023-07-24T13:58:40;32.30;99.90
33594;DHT22;19920;52.242;20.940;2023-07-24T14:01:05;32.50;99.90
33594;DHT22;19920;52.242;20.940;2023-07-24T14:03:32;32.50;99.90
33594;DHT22;19920;52.242;20.940;2023-07-24T14:05:58;32.70;99.90
33594;DHT22;19920;52.242;20.940;2023-07-24T14:08:24;33.00;99.90
33594;DHT22;19920;52.242;20.940;2023-07-24T14:10:50;33.30;99.90
33594;DHT22;19920;52.242;20.940;2023-07-24T14:13:16;33.40;98.60
33594;DHT22;19920;52.242;20.940;2023-07-24T14:15:42;33.40;98.30
33594;DHT22;19920;52.242;20.940;2023-07-24T14:18:08;33.00;98.20
33594;DHT22;19920;52.242;20.940;2023-07-24T14:20:33;33.00;98.30
33594;DHT22;19920;52.242;20.940;2023-07-24T14:22:59;33.40;97.60
33594;DHT22;19920;52.242;20.940;2023-07-24T14:25:24;33.90;96.90
33594;DHT22;19920;52.242;20.940;2023-07-24T14:27:50;34.10;96.10
33594;DHT22;19920;52.242;20.940;2023-07-24T14:30:16;34.30;96.00
33594;DHT22;19920;52.242;20.940;2023-07-24T14:32:41;33.90;95.90
33594;DHT22;19920;52.242;20.940;2023-07-24T14:35:07;34.50;95.20
33594;DHT22;19920;52.242;20.940;2023-07-24T14:37:33;34.50;94.70
33594;DHT22;19920;52.242;20.940;2023-07-24T14:39:58;34.00;93.60
33594;DHT22;19920;52.242;20.940;2023-07-24T14:42:24;33.90;95.00
33594;DHT22;19920;52.242;20.940;2023-07-24T14:44:49;34.10;94.70
33594;DHT22;19920;52.242;20.940;2023-07-24T14:47:15;33.90;94.00
33594;DHT22;19920;52.242;20.940;2023-07-24T14:49:41;34.00;93.70
33594;DHT22;19920;52.242;20.940;2023-07-24T14:52:06;34.30;93.20
33594;DHT22;19920;52.242;20.940;2023-07-24T14:54:32;34.30;93.70
33594;DHT22;19920;52.242;20.940;2023-07-24T14:56:58;34.10;93.60
33594;DHT22;19920;52.242;20.940;2023-07-24T14:59:23;33.90;93.50
33594;DHT22;19920;52.242;20.940;2023-07-24T15:01:49;33.00;93.80
33594;DHT22;19920;52.242;20.940;2023-07-24T15:04:14;32.70;95.30
33594;DHT22;19920;52.242;20.940;2023-07-24T15:06:40;32.50;94.90
33594;DHT22;19920;52.242;20.940;2023-07-24T15:09:06;32.30;94.80
33594;DHT22;19920;52.242;20.940;2023-07-24T15:11:31;32.10;95.00
33594;DHT22;19920;52.242;20.940;2023-07-24T15:13:57;32.30;95.00
33594;DHT22;19920;52.242;20.940;2023-07-24T15:16:22;32.50;95.60
33594;DHT22;19920;52.242;20.940;2023-07-24T15:18:48;33.20;95.00